Latest Weather Observations for Oakey

IDQ60801

Issued at 11:32 am EST Saturday 28 February 2015 (issued every 30 minutes, with the page automatically refreshed every 10 minutes)

About weather observations | Map of weather stations | Latest weather observations for QLD | Other Formats
Station Details ID: 041359 Name: OAKEY AERO Lat: -27.40 Lon: 151.74 Height: 405.69 m
Data from the previous 72 hours. | See also: Recent months at Oakey
Date/Time
EST
Temp
°C
App
Temp
°C
Dew
Point
Rel
Hum
%
Delta-T
°C
Wind Press
QNH
hPa
Press
MSL
hPa
Rain
since 9 am
mm
Dir
 
Spd
km/h
Gust
km/h
Spd
kts
Gust
kts
28/11:30am 28.0 29.3 18.4 56 6.2 ENE 9 17 5 9 1011.7 - 0.0
28/11:00am 27.5 27.2 17.4 54 6.5 NE 15 24 8 13 1012.2 - 0.0
28/10:30am 26.4 26.2 17.5 58 5.7 ENE 15 20 8 11 1012.4 - 0.0
28/10:00am 25.4 25.2 17.6 62 5.0 NE 15 22 8 12 1012.6 - 0.0
28/09:30am 25.5 24.6 18.2 64 4.7 NE 20 28 11 15 1012.8 - 0.0
28/09:00am 25.3 24.5 18.5 66 4.4 NE 20 30 11 16 1012.7 1010.5 0.0
28/08:30am 24.4 24.0 18.1 68 4.0 NE 17 24 9 13 1012.7 - 0.0
28/08:00am 23.5 23.4 18.8 75 3.0 ENE 17 20 9 11 1012.6 - 0.0
28/07:30am 22.1 21.9 18.5 80 2.3 ENE 17 19 9 10 1012.3 - 0.0
28/07:00am 20.9 21.0 18.3 85 1.6 E 15 17 8 9 1012.2 - 0.0
28/06:30am 19.7 20.4 18.0 90 1.1 SE 11 13 6 7 1012.0 - 0.0
28/06:00am 18.9 19.5 17.7 93 0.7 ENE 11 13 6 7 1011.6 1009.4 0.0
28/05:30am 18.9 19.8 17.6 92 0.8 NE 9 11 5 6 1011.2 - 0.0
28/05:00am 19.2 20.0 17.3 89 1.2 ENE 9 9 5 5 1011.2 - 0.0
28/04:30am 20.2 20.9 18.0 87 1.4 NE 11 13 6 7 1010.9 - 0.0
28/04:00am 20.3 21.1 18.2 88 1.3 ENE 11 13 6 7 1010.6 - 0.0
28/03:30am 20.4 21.3 18.3 88 1.3 NE 11 13 6 7 1010.7 - 0.0
28/03:00am 20.6 21.0 18.2 86 1.5 ESE 13 17 7 9 1010.6 1008.3 0.0
28/02:30am 20.6 19.9 18.2 86 1.5 ENE 19 24 10 13 1010.8 - 0.0
28/02:00am 20.7 19.9 18.1 85 1.6 ENE 19 26 10 14 1011.1 - 0.0
28/01:30am 20.6 20.7 18.4 87 1.4 ENE 15 20 8 11 1011.1 - 0.0
28/01:00am 20.9 19.2 18.1 84 1.8 ENE 24 30 13 16 1011.0 - 0.0
28/12:30am 20.9 20.0 18.3 85 1.6 ENE 20 28 11 15 1011.2 - 0.0
28/12:00am 20.8 20.6 18.6 87 1.4 ENE 17 22 9 12 1011.3 1009.1 0.0
 
Date/Time
EST
Temp
°C
App
Temp
°C
Dew
Point
Rel
Hum
%
Delta-T
°C
Wind Press
QNH
hPa
Press
MSL
hPa
Rain
since 9 am
mm
Dir
 
Spd
km/h
Gust
km/h
Spd
kts
Gust
kts
27/11:30pm 21.0 20.5 18.6 86 1.5 ENE 19 24 10 13 1011.3 - 0.0
27/11:00pm 21.2 20.5 18.6 85 1.7 ENE 20 26 11 14 1011.2 - 0.0
27/10:30pm 21.6 21.2 18.8 84 1.8 ENE 19 24 10 13 1010.9 - 0.0
27/10:00pm 21.9 21.6 19.1 84 1.8 ENE 19 24 10 13 1010.8 - 0.0
27/09:30pm 22.2 21.7 19.2 83 1.9 ENE 20 28 11 15 1010.9 - 0.0
27/09:00pm 22.5 22.3 19.3 82 2.1 ENE 19 24 10 13 1010.6 1008.3 0.0
27/08:30pm 22.8 22.3 19.2 80 2.3 ENE 20 26 11 14 1010.0 - 0.0
27/08:00pm 23.1 22.5 18.8 77 2.8 ENE 20 24 11 13 1009.7 - 0.0
27/07:30pm 23.3 22.7 18.4 74 3.1 ENE 19 24 10 13 1009.3 - 0.0
27/07:00pm 23.7 22.8 18.1 71 3.6 ENE 20 26 11 14 1009.0 - 0.0
27/06:30pm 24.4 23.8 18.8 71 3.6 ENE 20 26 11 14 1009.0 - 0.0
27/06:00pm 25.2 23.9 19.1 69 4.0 E 24 28 13 15 1008.5 1006.2 0.0
27/05:30pm 25.6 23.7 19.3 68 4.1 ENE 28 33 15 18 1008.2 - 0.0
27/05:00pm 25.9 24.0 18.6 64 4.7 E 26 33 14 18 1007.6 - 0.0
27/04:30pm 26.5 26.0 19.1 64 4.8 E 20 28 11 15 1007.5 - 0.0
27/04:00pm 28.8 30.0 17.3 49 7.4 NW 7 11 4 6 1007.4 - 0.0
27/03:30pm 28.9 30.2 17.1 49 7.5 N 6 11 3 6 1007.5 - 0.0
27/03:00pm 29.6 30.3 17.1 47 8.0 WNW 9 15 5 8 1007.7 1005.5 0.0
27/02:30pm 28.5 28.8 16.1 47 7.8 NNW 9 13 5 7 1008.0 - 0.0
27/02:00pm 28.4 27.4 16.7 49 7.4 N 17 24 9 13 1008.1 - 0.0
27/01:30pm 28.4 29.1 16.0 47 7.8 NNW 7 13 4 7 1008.6 - 0.0
27/01:00pm 29.0 29.3 16.9 48 7.7 NNW 11 19 6 10 1008.9 - 0.0
27/12:30pm 27.9 28.9 17.7 53 6.6 NNE 9 15 5 8 1009.3 - 0.0
27/12:00pm 27.3 27.9 16.9 53 6.6 NW 9 15 5 8 1009.7 1007.5 0.0
27/11:30am 26.4 26.9 16.6 55 6.2 NW 9 13 5 7 1010.2 - 0.0
27/11:00am 25.6 26.4 17.3 60 5.3 N 9 15 5 8 1010.6 - 0.0
27/10:30am 24.3 24.1 16.8 63 4.7 NNE 13 19 7 10 1010.9 - 0.0
27/10:00am 24.4 24.0 17.1 63 4.6 NNE 15 19 8 10 1011.0 - 0.0
27/09:30am 22.6 22.0 16.6 69 3.7 NNE 15 19 8 10 1011.2 - 0.0
27/09:00am 21.8 21.0 18.0 79 2.4 NNE 19 24 10 13 1011.1 1008.9 18.0
27/08:30am 20.1 20.3 17.7 86 1.5 NE 13 17 7 9 1011.3 - 17.8
27/08:00am 19.7 20.6 18.4 92 0.8 NE 11 15 6 8 1011.3 - 17.8
27/07:30am 18.5 19.0 17.5 94 0.6 NE 11 13 6 7 1011.0 - 17.8
27/07:00am 17.9 17.1 17.1 95 0.5 NNE 17 20 9 11 1011.2 - 17.8
27/06:30am 17.9 17.9 17.3 96 0.4 N 13 17 7 9 1011.3 - 17.8
27/06:00am 17.7 19.4 17.1 96 0.4 E 4 7 2 4 1011.4 1009.2 17.4
27/05:59am 17.7 19.4 17.1 96 0.4 E 4 7 2 4 1011.4 - 17.4
27/05:30am 17.8 18.1 17.0 95 0.5 E 11 17 6 9 1011.4 - 14.0
27/05:29am 17.8 18.1 17.0 95 0.5 ENE 11 19 6 10 1011.5 - 14.0
27/05:15am 17.8 18.0 16.8 94 0.6 ENE 11 15 6 8 1010.9 - 12.8
27/05:12am 17.6 17.7 16.6 94 0.6 ENE 11 15 6 8 1010.9 - 12.6
27/05:00am 17.7 18.6 16.7 94 0.6 NNE 7 13 4 7 1010.9 - 12.2
27/04:55am 17.6 18.5 16.5 93 0.7 SW 7 19 4 10 1011.3 - 11.8
27/04:30am 18.1 15.7 16.3 89 1.1 NE 24 35 13 19 1009.7 - 6.0
27/04:07am 19.6 17.8 17.9 90 1.1 E 24 32 13 17 1009.6 - 1.2
27/04:06am 19.6 17.8 17.9 90 1.1 ESE 24 32 13 17 1009.6 - 1.0
27/04:03am 19.7 17.9 17.8 89 1.2 ESE 24 32 13 17 1009.5 - 0.6
27/04:00am 19.7 18.2 17.7 88 1.2 ESE 22 32 12 17 1009.6 - 0.4
27/03:47am 20.1 19.6 17.9 87 1.4 E 17 20 9 11 1009.6 - 0.2
27/03:30am 21.1 20.1 17.5 80 2.3 SE 19 22 10 12 1009.9 - 0.0
27/03:00am 21.1 19.9 17.1 78 2.5 ENE 19 28 10 15 1009.3 1007.1 0.0
27/02:53am 21.1 19.9 17.1 78 2.5 NE 19 28 10 15 1008.8 - 0.0
27/02:30am 21.3 20.2 17.7 80 2.3 ENE 20 28 11 15 1008.6 - 0.0
27/02:00am 20.8 19.6 17.6 82 2.0 ENE 20 30 11 16 1008.7 - 0.0
27/01:41am 20.8 18.5 17.6 82 2.0 ENE 26 35 14 19 1008.6 - 0.0
27/01:30am 20.7 20.1 17.5 82 2.0 ENE 17 22 9 12 1009.0 - 0.0
27/01:00am 20.7 20.2 17.7 83 1.9 ENE 17 22 9 12 1009.0 - 0.0
27/12:30am 21.1 18.8 17.7 81 2.1 ENE 26 32 14 17 1008.9 - 0.0
27/12:00am 21.2 18.1 17.6 80 2.3 ENE 30 35 16 19 1008.8 1006.6 0.0
 
Date/Time
EST
Temp
°C
App
Temp
°C
Dew
Point
Rel
Hum
%
Delta-T
°C
Wind Press
QNH
hPa
Press
MSL
hPa
Rain
since 9 am
mm
Dir
 
Spd
km/h
Gust
km/h
Spd
kts
Gust
kts
26/11:30pm 21.4 20.1 18.2 82 2.0 ENE 22 28 12 15 1009.4 - 0.0
26/11:00pm 21.4 20.7 18.2 82 2.0 ENE 19 24 10 13 1009.6 - 0.0
26/10:30pm 21.8 21.0 18.0 79 2.4 ENE 19 24 10 13 1009.7 - 0.0
26/10:00pm 22.2 21.1 17.8 76 2.8 ENE 20 26 11 14 1010.1 - 0.0
26/09:30pm 22.7 20.9 17.8 74 3.1 ENE 24 33 13 18 1009.5 - 0.0
26/09:00pm 23.5 20.5 17.7 70 3.7 ENE 30 35 16 19 1009.4 1007.2 0.0
26/08:30pm 24.1 22.5 17.4 66 4.2 ENE 22 30 12 16 1009.4 - 0.0
26/08:00pm 24.5 23.2 16.7 61 4.9 ENE 19 24 10 13 1009.0 - 0.0
26/07:30pm 25.0 23.1 16.7 60 5.2 ENE 22 28 12 15 1008.9 - 0.0
26/07:00pm 25.5 23.2 16.6 58 5.6 ENE 24 30 13 16 1008.5 - 0.0
26/06:30pm 26.1 23.9 16.9 57 5.8 ENE 24 30 13 16 1008.3 - 0.0
26/06:00pm 27.0 25.0 17.5 56 6.1 ENE 24 35 13 19 1007.5 1005.3 0.0
26/05:30pm 27.8 25.1 17.6 53 6.5 E 28 37 15 20 1007.2 - 0.0
26/05:00pm 28.7 26.2 17.2 49 7.4 E 26 32 14 17 1007.2 - 0.0
26/04:30pm 29.1 27.7 16.6 46 7.9 ENE 19 24 10 13 1007.2 - 0.0
26/04:00pm 29.4 26.8 15.9 44 8.5 E 24 30 13 16 1007.1 - 0.0
26/03:30pm 30.4 31.2 13.7 36 10.2 WSW 2 7 1 4 1007.3 - 0.0
26/03:00pm 30.4 30.1 14.5 38 9.8 SSE 9 15 5 8 1007.5 1005.3 0.0
26/02:30pm 31.0 30.5 15.0 38 10.0 WSW 11 20 6 11 1007.9 - 0.0
26/02:18pm 30.8 31.1 14.4 36 10.1 WSW 6 15 3 8 1008.1 - 0.0
26/02:00pm 30.6 30.4 14.7 38 9.9 N 9 13 5 7 1008.5 - 0.0
26/01:30pm 30.8 31.2 15.2 38 9.8 SW 7 11 4 6 1009.1 - 0.0
26/01:00pm 29.4 28.6 14.0 39 9.4 WNW 11 17 6 9 1009.6 - 0.0
26/12:30pm 29.5 29.9 15.2 41 8.9 ESE 7 11 4 6 1010.0 - 0.0
26/12:00pm 29.2 29.6 16.4 46 8.1 N 9 17 5 9 1010.5 1008.2 0.0
26/11:30am 28.0 27.4 15.6 46 7.7 ENE 13 19 7 10 1010.8 - 0.0
26/11:00am 27.2 26.4 15.2 47 7.4 NE 13 22 7 12 1011.3 - 0.0
26/10:30am 27.0 26.0 14.7 47 7.5 NNE 13 22 7 12 1011.6 - 0.0
26/10:00am 26.3 25.3 14.7 48 7.1 NE 13 19 7 10 1011.9 - 0.0
26/09:30am 24.9 23.9 14.7 53 6.2 NE 13 20 7 11 1011.8 - 0.0
26/09:00am 24.7 23.6 15.3 56 5.8 ENE 15 19 8 10 1012.0 1009.8 0.0
26/08:30am 23.7 22.5 16.2 63 4.6 ENE 17 22 9 12 1011.6 - 0.0
26/08:00am 22.5 21.4 16.3 68 3.8 ENE 17 20 9 11 1011.6 - 0.0
26/07:30am 21.3 20.0 16.7 75 2.8 ENE 19 26 10 14 1011.4 - 0.0
26/07:00am 20.4 20.3 17.0 81 2.1 ENE 13 17 7 9 1011.4 - 0.0
26/06:00am 17.5 18.1 15.8 90 1.0 E 7 9 4 5 1011.1 1008.9 0.0
26/05:30am 18.0 18.3 16.0 88 1.2 ENE 9 15 5 8 1010.7 - 0.0
26/05:00am 18.4 18.1 16.4 88 1.2 ENE 13 17 7 9 1010.5 - 0.0
26/04:30am 18.7 18.2 17.0 90 1.0 E 15 19 8 10 1010.5 - 0.0
26/04:00am 18.4 19.3 16.7 90 1.0 SE 7 11 4 6 1010.7 - 0.0
26/03:30am 18.5 19.6 16.5 88 1.2 ENE 6 9 3 5 1010.1 - 0.0
26/03:00am 18.4 19.2 16.4 88 1.2 ENE 7 9 4 5 1010.5 1008.2 0.0
26/02:30am 18.6 19.3 16.0 85 1.6 E 7 9 4 5 1011.0 - 0.0
26/02:00am 19.2 18.8 16.2 83 1.8 ENE 13 17 7 9 1011.1 - 0.0
26/01:30am 19.5 19.2 16.5 83 1.8 ENE 13 19 7 10 1011.7 - 0.0
26/01:00am 19.8 19.3 16.8 83 1.8 E 15 20 8 11 1011.9 - 0.0
26/12:30am 20.2 19.0 17.0 82 2.0 E 19 26 10 14 1012.1 - 0.0
26/12:00am 20.3 19.4 16.9 81 2.1 ENE 17 20 9 11 1012.3 1010.1 0.0
 
Date/Time
EST
Temp
°C
App
Temp
°C
Dew
Point
Rel
Hum
%
Delta-T
°C
Wind Press
QNH
hPa
Press
MSL
hPa
Rain
since 9 am
mm
Dir
 
Spd
km/h
Gust
km/h
Spd
kts
Gust
kts
25/11:30pm 20.6 19.3 16.8 79 2.3 ENE 19 24 10 13 1012.7 - 0.0
25/11:00pm 21.0 19.5 16.8 77 2.6 E 20 28 11 15 1012.9 - 0.0
25/10:30pm 21.4 20.0 17.0 76 2.7 ENE 20 24 11 13 1013.1 - 0.0
25/10:04pm 21.7 20.4 17.3 76 2.8 ENE 20 32 11 17 1012.6 - 0.0
25/10:00pm 21.6 21.1 17.8 79 2.4 ENE 17 24 9 13 1012.6 - 0.0
25/09:46pm 21.8 21.0 18.0 79 2.4 ENE 19 24 10 13 1012.7 - 0.0
25/09:30pm 22.1 21.2 18.1 78 2.5 ENE 20 24 11 13 1012.9 - 0.0
25/09:00pm 22.4 20.7 18.0 76 2.8 ENE 24 30 13 16 1012.6 1010.4 0.0
25/08:30pm 22.8 20.7 18.1 75 3.0 ENE 26 33 14 18 1012.3 - 0.0
25/08:00pm 23.5 21.8 18.2 72 3.4 ENE 24 32 13 17 1012.2 - 0.0
25/07:30pm 24.3 22.5 17.8 67 4.1 ENE 24 33 13 18 1011.6 - 0.0
25/07:00pm 24.8 23.5 16.8 61 5.0 ENE 19 22 10 12 1011.3 - 0.0
25/06:30pm 25.7 24.3 16.5 56 5.8 ENE 19 24 10 13 1011.1 - 0.0
25/06:00pm 26.9 25.4 16.2 52 6.7 E 19 28 10 15 1010.8 1008.5 0.0
25/05:30pm 27.7 24.9 16.3 49 7.2 E 26 32 14 17 1010.3 - 0.0
25/05:00pm 28.4 25.2 16.3 47 7.6 E 28 41 15 22 1010.2 - 0.0
25/04:30pm 29.1 27.5 16.6 46 7.9 E 20 28 11 15 1010.2 - 0.0
25/04:00pm 28.6 26.2 15.5 45 8.2 E 22 28 12 15 1010.2 - 0.0
25/03:30pm 30.5 29.6 16.9 44 8.7 ENE 17 28 9 15 1010.5 - 0.0
25/03:00pm 29.6 27.8 16.1 44 8.5 ENE 20 30 11 16 1010.6 1008.3 0.0
25/02:30pm 29.4 27.9 16.2 44 8.3 ENE 19 35 10 19 1011.1 - 0.0
25/02:00pm 29.0 27.2 15.9 45 8.2 ENE 20 32 11 17 1011.5 - 0.0
25/01:30pm 29.0 28.1 16.9 48 7.7 ESE 17 26 9 14 1012.0 - 0.0
25/01:00pm 28.1 26.3 15.4 46 7.9 E 19 30 10 16 1012.3 - 0.0
25/12:30pm 28.7 27.1 15.9 45 8.0 E 19 28 10 15 1012.6 - 0.0
25/12:00pm 28.6 27.5 17.2 50 7.3 E 19 26 10 14 1012.9 1010.7 0.0

Other Formats:

Comma delimited format used in spreadsheet applications
http://www.bom.gov.au/fwo/IDQ60801/IDQ60801.94552.axf

JavaScript Object Notation format (JSON) in row-major order
http://www.bom.gov.au/fwo/IDQ60801/IDQ60801.94552.json